sensor_id;sensor_type;location;lat;lon;timestamp;temperature;humidity
77582;DHT22;66726;52.388;9.986;2024-03-22T00:02:10;8.80;99.90
77582;DHT22;66726;52.388;9.986;2024-03-22T00:04:37;8.70;99.90
77582;DHT22;66726;52.388;9.986;2024-03-22T00:07:04;8.80;99.90
77582;DHT22;66726;52.388;9.986;2024-03-22T00:09:31;8.70;99.90
77582;DHT22;66726;52.388;9.986;2024-03-22T00:11:57;8.80;99.90
77582;DHT22;66726;52.388;9.986;2024-03-22T00:14:26;8.80;99.90
77582;DHT22;66726;52.388;9.986;2024-03-22T00:16:52;8.80;99.90
77582;DHT22;66726;52.388;9.986;2024-03-22T00:19:19;8.80;99.90
77582;DHT22;66726;52.388;9.986;2024-03-22T00:21:46;8.80;99.90
77582;DHT22;66726;52.388;9.986;2024-03-22T00:24:13;8.80;99.90
77582;DHT22;66726;52.388;9.986;2024-03-22T00:26:39;8.80;99.90
77582;DHT22;66726;52.388;9.986;2024-03-22T00:29:06;8.80;99.90
77582;DHT22;66726;52.388;9.986;2024-03-22T00:31:34;8.80;99.90
77582;DHT22;66726;52.388;9.986;2024-03-22T00:34:01;8.90;99.90
77582;DHT22;66726;52.388;9.986;2024-03-22T00:36:27;8.90;99.90
77582;DHT22;66726;52.388;9.986;2024-03-22T00:38:54;8.90;99.90
77582;DHT22;66726;52.388;9.986;2024-03-22T00:41:21;8.90;99.90
77582;DHT22;66726;52.388;9.986;2024-03-22T00:43:48;8.90;99.90
77582;DHT22;66726;52.388;9.986;2024-03-22T00:46:14;8.90;99.90
77582;DHT22;66726;52.388;9.986;2024-03-22T00:48:42;8.90;99.90
77582;DHT22;66726;52.388;9.986;2024-03-22T00:51:09;8.90;99.90
77582;DHT22;66726;52.388;9.986;2024-03-22T00:53:36;9.00;99.90
77582;DHT22;66726;52.388;9.986;2024-03-22T00:56:02;9.00;99.90
77582;DHT22;66726;52.388;9.986;2024-03-22T00:58:30;9.00;99.90
77582;DHT22;66726;52.388;9.986;2024-03-22T01:00:56;9.00;99.90
77582;DHT22;66726;52.388;9.986;2024-03-22T01:03:23;9.00;99.90
77582;DHT22;66726;52.388;9.986;2024-03-22T01:05:51;9.00;99.90
77582;DHT22;66726;52.388;9.986;2024-03-22T01:08:18;9.00;99.90
77582;DHT22;66726;52.388;9.986;2024-03-22T01:10:45;9.00;99.90
77582;DHT22;66726;52.388;9.986;2024-03-22T01:13:12;9.10;99.90
77582;DHT22;66726;52.388;9.986;2024-03-22T01:15:38;9.10;99.90
77582;DHT22;66726;52.388;9.986;2024-03-22T01:18:05;9.10;99.90
77582;DHT22;66726;52.388;9.986;2024-03-22T01:20:32;9.10;99.90
77582;DHT22;66726;52.388;9.986;2024-03-22T01:23:00;9.10;99.90
77582;DHT22;66726;52.388;9.986;2024-03-22T01:25:27;9.20;99.90
77582;DHT22;66726;52.388;9.986;2024-03-22T01:27:55;9.20;99.90
77582;DHT22;66726;52.388;9.986;2024-03-22T01:30:22;9.20;99.90
77582;DHT22;66726;52.388;9.986;2024-03-22T01:32:49;9.20;99.90
77582;DHT22;66726;52.388;9.986;2024-03-22T01:35:15;9.20;99.90
77582;DHT22;66726;52.388;9.986;2024-03-22T01:37:43;9.20;99.90
77582;DHT22;66726;52.388;9.986;2024-03-22T01:40:12;9.20;99.90
77582;DHT22;66726;52.388;9.986;2024-03-22T01:42:40;9.30;99.90
77582;DHT22;66726;52.388;9.986;2024-03-22T01:45:07;9.30;99.90
77582;DHT22;66726;52.388;9.986;2024-03-22T01:47:34;9.30;99.90
77582;DHT22;66726;52.388;9.986;2024-03-22T01:50:01;9.30;99.90
77582;DHT22;66726;52.388;9.986;2024-03-22T01:52:29;9.30;99.90
77582;DHT22;66726;52.388;9.986;2024-03-22T01:54:55;9.40;99.90
77582;DHT22;66726;52.388;9.986;2024-03-22T01:57:24;9.30;99.90
77582;DHT22;66726;52.388;9.986;2024-03-22T01:59:51;9.30;99.90
77582;DHT22;66726;52.388;9.986;2024-03-22T02:02:22;9.30;99.90
77582;DHT22;66726;52.388;9.986;2024-03-22T02:04:50;9.40;99.90
77582;DHT22;66726;52.388;9.986;2024-03-22T02:07:17;9.40;99.90
77582;DHT22;66726;52.388;9.986;2024-03-22T02:09:44;9.40;99.90
77582;DHT22;66726;52.388;9.986;2024-03-22T02:12:11;9.40;99.90
77582;DHT22;66726;52.388;9.986;2024-03-22T02:14:39;9.40;99.90
77582;DHT22;66726;52.388;9.986;2024-03-22T02:17:07;9.40;99.90
77582;DHT22;66726;52.388;9.986;2024-03-22T02:19:33;9.40;99.90
77582;DHT22;66726;52.388;9.986;2024-03-22T02:22:00;9.40;99.90
77582;DHT22;66726;52.388;9.986;2024-03-22T02:24:28;9.40;99.90
77582;DHT22;66726;52.388;9.986;2024-03-22T02:26:55;9.50;99.90
77582;DHT22;66726;52.388;9.986;2024-03-22T02:29:21;9.50;99.90
77582;DHT22;66726;52.388;9.986;2024-03-22T02:31:48;9.50;99.90
77582;DHT22;66726;52.388;9.986;2024-03-22T02:34:15;9.40;99.90
77582;DHT22;66726;52.388;9.986;2024-03-22T02:36:42;9.40;99.90
77582;DHT22;66726;52.388;9.986;2024-03-22T02:39:08;9.40;99.90
77582;DHT22;66726;52.388;9.986;2024-03-22T02:41:37;9.50;99.90
77582;DHT22;66726;52.388;9.986;2024-03-22T02:44:03;9.50;99.90
77582;DHT22;66726;52.388;9.986;2024-03-22T02:46:30;9.50;99.90
77582;DHT22;66726;52.388;9.986;2024-03-22T02:48:57;9.50;99.90
77582;DHT22;66726;52.388;9.986;2024-03-22T02:51:24;9.50;99.90
77582;DHT22;66726;52.388;9.986;2024-03-22T02:53:50;9.50;99.90
77582;DHT22;66726;52.388;9.986;2024-03-22T02:56:17;9.50;99.90
77582;DHT22;66726;52.388;9.986;2024-03-22T02:58:45;9.50;99.90
77582;DHT22;66726;52.388;9.986;2024-03-22T03:01:12;9.50;99.90
77582;DHT22;66726;52.388;9.986;2024-03-22T03:03:38;9.50;99.90
77582;DHT22;66726;52.388;9.986;2024-03-22T03:06:05;9.50;99.90
77582;DHT22;66726;52.388;9.986;2024-03-22T03:08:31;9.60;99.90
77582;DHT22;66726;52.388;9.986;2024-03-22T03:10:59;9.50;99.90
77582;DHT22;66726;52.388;9.986;2024-03-22T03:13:25;9.60;99.90
77582;DHT22;66726;52.388;9.986;2024-03-22T03:15:56;9.60;99.90
77582;DHT22;66726;52.388;9.986;2024-03-22T03:18:22;9.60;99.90
77582;DHT22;66726;52.388;9.986;2024-03-22T03:20:50;9.60;99.90
77582;DHT22;66726;52.388;9.986;2024-03-22T03:23:16;9.60;99.90
77582;DHT22;66726;52.388;9.986;2024-03-22T03:25:43;9.60;99.90
77582;DHT22;66726;52.388;9.986;2024-03-22T03:28:09;9.60;99.90
77582;DHT22;66726;52.388;9.986;2024-03-22T03:30:38;9.60;99.90
77582;DHT22;66726;52.388;9.986;2024-03-22T03:33:06;9.60;99.90
77582;DHT22;66726;52.388;9.986;2024-03-22T03:35:33;9.60;99.90
77582;DHT22;66726;52.388;9.986;2024-03-22T03:37:59;9.70;99.90
77582;DHT22;66726;52.388;9.986;2024-03-22T03:40:26;9.60;99.90
77582;DHT22;66726;52.388;9.986;2024-03-22T03:42:53;9.60;99.90
77582;DHT22;66726;52.388;9.986;2024-03-22T03:45:20;9.60;99.90
77582;DHT22;66726;52.388;9.986;2024-03-22T03:47:48;9.60;99.90
77582;DHT22;66726;52.388;9.986;2024-03-22T03:50:16;9.50;99.90
77582;DHT22;66726;52.388;9.986;2024-03-22T03:52:43;9.50;99.90
77582;DHT22;66726;52.388;9.986;2024-03-22T03:55:10;9.50;99.90
77582;DHT22;66726;52.388;9.986;2024-03-22T03:57:36;9.50;99.90
77582;DHT22;66726;52.388;9.986;2024-03-22T04:00:04;9.50;99.90
77582;DHT22;66726;52.388;9.986;2024-03-22T04:02:31;9.50;99.90
77582;DHT22;66726;52.388;9.986;2024-03-22T04:04:58;9.50;99.90
77582;DHT22;66726;52.388;9.986;2024-03-22T04:07:26;9.50;99.90
77582;DHT22;66726;52.388;9.986;2024-03-22T04:09:55;9.50;99.90
77582;DHT22;66726;52.388;9.986;2024-03-22T04:12:21;9.50;99.90
77582;DHT22;66726;52.388;9.986;2024-03-22T04:14:48;9.40;99.90
77582;DHT22;66726;52.388;9.986;2024-03-22T04:17:14;9.50;99.90
77582;DHT22;66726;52.388;9.986;2024-03-22T04:19:41;9.50;99.90
77582;DHT22;66726;52.388;9.986;2024-03-22T04:22:07;9.50;99.90
77582;DHT22;66726;52.388;9.986;2024-03-22T04:24:36;9.50;99.90
77582;DHT22;66726;52.388;9.986;2024-03-22T04:27:02;9.50;99.90
77582;DHT22;66726;52.388;9.986;2024-03-22T04:29:30;9.50;99.90
77582;DHT22;66726;52.388;9.986;2024-03-22T04:31:56;9.50;99.90
77582;DHT22;66726;52.388;9.986;2024-03-22T04:34:23;9.50;99.90
77582;DHT22;66726;52.388;9.986;2024-03-22T04:36:50;9.50;99.90
77582;DHT22;66726;52.388;9.986;2024-03-22T04:39:19;9.50;99.90
77582;DHT22;66726;52.388;9.986;2024-03-22T04:41:47;9.50;99.90
77582;DHT22;66726;52.388;9.986;2024-03-22T04:44:14;9.50;99.90
77582;DHT22;66726;52.388;9.986;2024-03-22T04:46:41;9.50;99.90
77582;DHT22;66726;52.388;9.986;2024-03-22T04:49:08;9.50;99.90
77582;DHT22;66726;52.388;9.986;2024-03-22T04:51:34;9.50;99.90
77582;DHT22;66726;52.388;9.986;2024-03-22T04:54:02;9.50;99.90
77582;DHT22;66726;52.388;9.986;2024-03-22T04:56:28;9.50;99.90
77582;DHT22;66726;52.388;9.986;2024-03-22T04:58:56;9.50;99.90
77582;DHT22;66726;52.388;9.986;2024-03-22T05:01:23;9.50;99.90
77582;DHT22;66726;52.388;9.986;2024-03-22T05:03:50;9.50;99.90
77582;DHT22;66726;52.388;9.986;2024-03-22T05:06:17;9.50;99.90
77582;DHT22;66726;52.388;9.986;2024-03-22T05:08:45;9.50;99.90
77582;DHT22;66726;52.388;9.986;2024-03-22T05:11:11;9.40;99.90
77582;DHT22;66726;52.388;9.986;2024-03-22T05:13:38;9.40;99.90
77582;DHT22;66726;52.388;9.986;2024-03-22T05:16:07;9.40;99.90
77582;DHT22;66726;52.388;9.986;2024-03-22T05:18:34;9.40;99.90
77582;DHT22;66726;52.388;9.986;2024-03-22T05:21:00;9.40;99.90
77582;DHT22;66726;52.388;9.986;2024-03-22T05:23:27;9.40;99.90
77582;DHT22;66726;52.388;9.986;2024-03-22T05:25:54;9.50;99.90
77582;DHT22;66726;52.388;9.986;2024-03-22T05:28:21;9.40;99.90
77582;DHT22;66726;52.388;9.986;2024-03-22T05:30:47;9.40;99.90
77582;DHT22;66726;52.388;9.986;2024-03-22T05:33:16;9.50;99.90
77582;DHT22;66726;52.388;9.986;2024-03-22T05:35:42;9.50;99.90
77582;DHT22;66726;52.388;9.986;2024-03-22T05:38:09;9.50;99.90
77582;DHT22;66726;52.388;9.986;2024-03-22T05:40:36;9.50;99.90
77582;DHT22;66726;52.388;9.986;2024-03-22T05:43:04;9.50;99.90
77582;DHT22;66726;52.388;9.986;2024-03-22T05:45:30;9.50;99.90
77582;DHT22;66726;52.388;9.986;2024-03-22T05:47:58;9.50;99.90
77582;DHT22;66726;52.388;9.986;2024-03-22T05:50:25;9.50;99.90
77582;DHT22;66726;52.388;9.986;2024-03-22T05:52:52;9.60;99.90
77582;DHT22;66726;52.388;9.986;2024-03-22T05:55:19;9.60;99.90
77582;DHT22;66726;52.388;9.986;2024-03-22T05:57:46;9.60;99.90
77582;DHT22;66726;52.388;9.986;2024-03-22T06:00:12;9.60;99.90
77582;DHT22;66726;52.388;9.986;2024-03-22T06:02:40;9.60;99.90
77582;DHT22;66726;52.388;9.986;2024-03-22T06:05:07;9.60;99.90
77582;DHT22;66726;52.388;9.986;2024-03-22T06:07:35;9.60;99.90
77582;DHT22;66726;52.388;9.986;2024-03-22T06:10:08;9.60;99.90
77582;DHT22;66726;52.388;9.986;2024-03-22T06:12:36;9.60;99.90
77582;DHT22;66726;52.388;9.986;2024-03-22T06:15:03;9.70;99.90
77582;DHT22;66726;52.388;9.986;2024-03-22T06:17:32;9.60;99.90
77582;DHT22;66726;52.388;9.986;2024-03-22T06:19:58;9.70;99.90
77582;DHT22;66726;52.388;9.986;2024-03-22T06:22:26;9.70;99.90
77582;DHT22;66726;52.388;9.986;2024-03-22T06:24:54;9.70;99.90
77582;DHT22;66726;52.388;9.986;2024-03-22T06:27:21;9.80;99.90
77582;DHT22;66726;52.388;9.986;2024-03-22T06:29:47;9.80;99.90
77582;DHT22;66726;52.388;9.986;2024-03-22T06:32:14;9.80;99.90
77582;DHT22;66726;52.388;9.986;2024-03-22T06:34:41;9.90;99.90
77582;DHT22;66726;52.388;9.986;2024-03-22T06:37:08;9.90;99.90
77582;DHT22;66726;52.388;9.986;2024-03-22T06:39:34;9.90;99.90
77582;DHT22;66726;52.388;9.986;2024-03-22T06:42:03;9.90;99.90
77582;DHT22;66726;52.388;9.986;2024-03-22T06:44:30;9.90;99.90
77582;DHT22;66726;52.388;9.986;2024-03-22T06:46:57;10.00;99.90
77582;DHT22;66726;52.388;9.986;2024-03-22T06:49:23;10.00;99.90
77582;DHT22;66726;52.388;9.986;2024-03-22T06:51:51;10.00;99.90
77582;DHT22;66726;52.388;9.986;2024-03-22T06:54:17;10.00;99.90
77582;DHT22;66726;52.388;9.986;2024-03-22T06:56:44;10.00;99.90
77582;DHT22;66726;52.388;9.986;2024-03-22T06:59:12;10.10;99.90
77582;DHT22;66726;52.388;9.986;2024-03-22T07:01:39;10.10;99.90
77582;DHT22;66726;52.388;9.986;2024-03-22T07:04:05;10.20;99.90
77582;DHT22;66726;52.388;9.986;2024-03-22T07:06:32;10.20;99.90
77582;DHT22;66726;52.388;9.986;2024-03-22T07:08:59;10.20;99.90
77582;DHT22;66726;52.388;9.986;2024-03-22T07:11:26;10.30;99.90
77582;DHT22;66726;52.388;9.986;2024-03-22T07:13:52;10.30;99.90
77582;DHT22;66726;52.388;9.986;2024-03-22T07:16:21;10.30;99.90
77582;DHT22;66726;52.388;9.986;2024-03-22T07:18:47;10.30;99.90
77582;DHT22;66726;52.388;9.986;2024-03-22T07:21:15;10.30;99.90
77582;DHT22;66726;52.388;9.986;2024-03-22T07:23:41;10.30;99.90
77582;DHT22;66726;52.388;9.986;2024-03-22T07:26:08;10.40;99.90
77582;DHT22;66726;52.388;9.986;2024-03-22T07:28:35;10.50;99.90
77582;DHT22;66726;52.388;9.986;2024-03-22T07:31:02;10.50;99.90
77582;DHT22;66726;52.388;9.986;2024-03-22T07:33:31;10.50;99.90
77582;DHT22;66726;52.388;9.986;2024-03-22T07:36:01;10.60;99.90
77582;DHT22;66726;52.388;9.986;2024-03-22T07:38:28;10.60;99.90
77582;DHT22;66726;52.388;9.986;2024-03-22T07:40:55;10.60;99.90
77582;DHT22;66726;52.388;9.986;2024-03-22T07:43:22;10.70;99.90
77582;DHT22;66726;52.388;9.986;2024-03-22T07:45:49;10.70;99.90
77582;DHT22;66726;52.388;9.986;2024-03-22T07:48:15;10.80;99.90
77582;DHT22;66726;52.388;9.986;2024-03-22T07:50:44;10.80;99.90
77582;DHT22;66726;52.388;9.986;2024-03-22T07:53:10;10.90;99.90
77582;DHT22;66726;52.388;9.986;2024-03-22T07:55:39;10.90;99.90
77582;DHT22;66726;52.388;9.986;2024-03-22T07:58:05;10.90;99.90
77582;DHT22;66726;52.388;9.986;2024-03-22T08:00:33;10.90;99.90
77582;DHT22;66726;52.388;9.986;2024-03-22T08:02:59;10.90;99.90
77582;DHT22;66726;52.388;9.986;2024-03-22T08:05:28;10.90;99.90
77582;DHT22;66726;52.388;9.986;2024-03-22T08:07:55;11.00;99.90
77582;DHT22;66726;52.388;9.986;2024-03-22T08:10:23;11.00;99.90
77582;DHT22;66726;52.388;9.986;2024-03-22T08:12:49;11.10;99.90
77582;DHT22;66726;52.388;9.986;2024-03-22T08:15:18;11.10;99.90
77582;DHT22;66726;52.388;9.986;2024-03-22T08:17:44;11.10;99.90
77582;DHT22;66726;52.388;9.986;2024-03-22T08:20:11;11.10;99.90
77582;DHT22;66726;52.388;9.986;2024-03-22T08:22:38;11.20;99.90
77582;DHT22;66726;52.388;9.986;2024-03-22T08:25:07;11.30;99.90
77582;DHT22;66726;52.388;9.986;2024-03-22T08:27:33;11.20;99.90
77582;DHT22;66726;52.388;9.986;2024-03-22T08:30:01;11.30;99.90
77582;DHT22;66726;52.388;9.986;2024-03-22T08:32:28;11.40;99.90
77582;DHT22;66726;52.388;9.986;2024-03-22T08:34:55;11.40;99.90
77582;DHT22;66726;52.388;9.986;2024-03-22T08:37:21;11.40;99.90
77582;DHT22;66726;52.388;9.986;2024-03-22T08:39:49;11.50;99.90
77582;DHT22;66726;52.388;9.986;2024-03-22T08:42:16;11.50;99.90
77582;DHT22;66726;52.388;9.986;2024-03-22T08:44:44;11.50;99.90
77582;DHT22;66726;52.388;9.986;2024-03-22T08:47:10;11.50;99.90
77582;DHT22;66726;52.388;9.986;2024-03-22T08:49:37;11.50;99.90
77582;DHT22;66726;52.388;9.986;2024-03-22T08:52:04;11.70;99.90
77582;DHT22;66726;52.388;9.986;2024-03-22T08:54:31;11.70;99.90
77582;DHT22;66726;52.388;9.986;2024-03-22T08:56:57;11.70;99.90
77582;DHT22;66726;52.388;9.986;2024-03-22T08:59:25;11.70;99.90
77582;DHT22;66726;52.388;9.986;2024-03-22T09:01:52;11.70;99.90
77582;DHT22;66726;52.388;9.986;2024-03-22T09:04:19;11.70;99.90
77582;DHT22;66726;52.388;9.986;2024-03-22T09:06:46;11.70;99.90
77582;DHT22;66726;52.388;9.986;2024-03-22T09:09:13;11.70;99.90
77582;DHT22;66726;52.388;9.986;2024-03-22T09:11:40;11.80;99.90
77582;DHT22;66726;52.388;9.986;2024-03-22T09:14:06;11.70;99.90
77582;DHT22;66726;52.388;9.986;2024-03-22T09:16:35;11.70;99.90
77582;DHT22;66726;52.388;9.986;2024-03-22T09:19:02;11.70;99.90
77582;DHT22;66726;52.388;9.986;2024-03-22T09:21:28;11.70;99.90
77582;DHT22;66726;52.388;9.986;2024-03-22T09:23:57;11.70;99.90
77582;DHT22;66726;52.388;9.986;2024-03-22T09:26:23;11.80;99.90
77582;DHT22;66726;52.388;9.986;2024-03-22T09:28:50;11.70;99.90
77582;DHT22;66726;52.388;9.986;2024-03-22T09:31:16;11.80;99.90
77582;DHT22;66726;52.388;9.986;2024-03-22T09:33:45;11.80;99.90
77582;DHT22;66726;52.388;9.986;2024-03-22T09:36:11;11.80;99.90
77582;DHT22;66726;52.388;9.986;2024-03-22T09:38:38;11.80;99.90
77582;DHT22;66726;52.388;9.986;2024-03-22T09:41:05;11.80;99.90
77582;DHT22;66726;52.388;9.986;2024-03-22T09:43:33;11.80;99.90
77582;DHT22;66726;52.388;9.986;2024-03-22T09:46:01;11.80;99.90
77582;DHT22;66726;52.388;9.986;2024-03-22T09:48:29;11.80;99.90
77582;DHT22;66726;52.388;9.986;2024-03-22T09:50:59;11.80;99.90
77582;DHT22;66726;52.388;9.986;2024-03-22T09:53:28;11.90;99.90
77582;DHT22;66726;52.388;9.986;2024-03-22T09:55:58;11.90;99.90
77582;DHT22;66726;52.388;9.986;2024-03-22T09:58:27;12.00;99.90
77582;DHT22;66726;52.388;9.986;2024-03-22T10:00:54;12.00;99.90
77582;DHT22;66726;52.388;9.986;2024-03-22T10:03:26;12.00;99.90
77582;DHT22;66726;52.388;9.986;2024-03-22T10:05:52;12.10;99.90
77582;DHT22;66726;52.388;9.986;2024-03-22T10:08:21;12.10;99.90
77582;DHT22;66726;52.388;9.986;2024-03-22T10:10:48;12.10;99.90
77582;DHT22;66726;52.388;9.986;2024-03-22T10:13:15;12.10;99.90
77582;DHT22;66726;52.388;9.986;2024-03-22T10:15:41;12.20;99.90
77582;DHT22;66726;52.388;9.986;2024-03-22T10:18:09;12.20;99.90
77582;DHT22;66726;52.388;9.986;2024-03-22T10:20:36;12.20;99.90
77582;DHT22;66726;52.388;9.986;2024-03-22T10:23:03;12.20;99.90
77582;DHT22;66726;52.388;9.986;2024-03-22T10:25:32;12.30;99.90
77582;DHT22;66726;52.388;9.986;2024-03-22T10:28:00;12.40;99.90
77582;DHT22;66726;52.388;9.986;2024-03-22T10:30:26;12.30;99.90
77582;DHT22;66726;52.388;9.986;2024-03-22T10:32:56;12.40;99.90
77582;DHT22;66726;52.388;9.986;2024-03-22T10:35:23;12.40;99.90
77582;DHT22;66726;52.388;9.986;2024-03-22T10:37:52;12.40;99.90
77582;DHT22;66726;52.388;9.986;2024-03-22T10:40:20;12.50;99.90
77582;DHT22;66726;52.388;9.986;2024-03-22T10:42:49;12.60;99.90
77582;DHT22;66726;52.388;9.986;2024-03-22T10:45:15;12.60;99.90
77582;DHT22;66726;52.388;9.986;2024-03-22T10:47:44;12.60;99.90
77582;DHT22;66726;52.388;9.986;2024-03-22T10:50:12;12.60;99.90
77582;DHT22;66726;52.388;9.986;2024-03-22T10:52:42;12.60;99.90
77582;DHT22;66726;52.388;9.986;2024-03-22T10:55:18;12.60;99.90
77582;DHT22;66726;52.388;9.986;2024-03-22T10:57:50;12.60;99.90
77582;DHT22;66726;52.388;9.986;2024-03-22T11:00:27;12.50;99.90
77582;DHT22;66726;52.388;9.986;2024-03-22T11:02:55;12.60;99.90
77582;DHT22;66726;52.388;9.986;2024-03-22T11:05:22;12.60;99.90
77582;DHT22;66726;52.388;9.986;2024-03-22T11:07:59;12.50;99.90
77582;DHT22;66726;52.388;9.986;2024-03-22T11:10:28;12.60;99.90
77582;DHT22;66726;52.388;9.986;2024-03-22T11:13:02;12.60;99.90
77582;DHT22;66726;52.388;9.986;2024-03-22T11:15:28;12.70;99.90
77582;DHT22;66726;52.388;9.986;2024-03-22T11:17:56;12.70;99.90
77582;DHT22;66726;52.388;9.986;2024-03-22T11:20:23;12.80;99.90
77582;DHT22;66726;52.388;9.986;2024-03-22T11:22:51;12.90;99.90
77582;DHT22;66726;52.388;9.986;2024-03-22T11:25:17;13.00;99.90
77582;DHT22;66726;52.388;9.986;2024-03-22T11:27:45;12.90;99.90
77582;DHT22;66726;52.388;9.986;2024-03-22T11:30:14;12.90;99.90
77582;DHT22;66726;52.388;9.986;2024-03-22T11:32:42;13.00;99.90
77582;DHT22;66726;52.388;9.986;2024-03-22T11:35:11;13.00;99.90
77582;DHT22;66726;52.388;9.986;2024-03-22T11:37:40;13.00;99.90
77582;DHT22;66726;52.388;9.986;2024-03-22T11:40:09;13.00;99.90
77582;DHT22;66726;52.388;9.986;2024-03-22T11:42:38;13.00;99.90
77582;DHT22;66726;52.388;9.986;2024-03-22T11:45:09;13.00;99.90
77582;DHT22;66726;52.388;9.986;2024-03-22T11:47:39;13.00;99.90
77582;DHT22;66726;52.388;9.986;2024-03-22T11:50:06;13.00;99.90
77582;DHT22;66726;52.388;9.986;2024-03-22T11:52:35;12.90;99.90
77582;DHT22;66726;52.388;9.986;2024-03-22T11:55:02;12.90;99.90
77582;DHT22;66726;52.388;9.986;2024-03-22T11:57:32;12.90;99.90
77582;DHT22;66726;52.388;9.986;2024-03-22T11:59:59;12.90;99.90
77582;DHT22;66726;52.388;9.986;2024-03-22T12:02:27;12.90;99.90
77582;DHT22;66726;52.388;9.986;2024-03-22T12:04:55;13.00;99.90
77582;DHT22;66726;52.388;9.986;2024-03-22T12:07:24;12.90;99.90
77582;DHT22;66726;52.388;9.986;2024-03-22T12:09:50;12.90;99.90
77582;DHT22;66726;52.388;9.986;2024-03-22T12:12:18;12.90;99.90
77582;DHT22;66726;52.388;9.986;2024-03-22T12:14:47;12.90;99.90
77582;DHT22;66726;52.388;9.986;2024-03-22T12:17:17;12.90;99.90
77582;DHT22;66726;52.388;9.986;2024-03-22T12:19:43;12.90;99.90
77582;DHT22;66726;52.388;9.986;2024-03-22T12:22:11;12.90;99.90
77582;DHT22;66726;52.388;9.986;2024-03-22T12:24:38;12.90;99.90
77582;DHT22;66726;52.388;9.986;2024-03-22T12:27:05;12.90;99.90
77582;DHT22;66726;52.388;9.986;2024-03-22T12:29:32;12.90;99.90
77582;DHT22;66726;52.388;9.986;2024-03-22T12:32:00;12.90;99.90
77582;DHT22;66726;52.388;9.986;2024-03-22T12:34:29;12.90;99.90
77582;DHT22;66726;52.388;9.986;2024-03-22T12:36:58;12.90;99.90
77582;DHT22;66726;52.388;9.986;2024-03-22T12:39:26;12.90;99.90
77582;DHT22;66726;52.388;9.986;2024-03-22T12:41:53;12.90;99.90
77582;DHT22;66726;52.388;9.986;2024-03-22T12:44:20;12.90;99.90
77582;DHT22;66726;52.388;9.986;2024-03-22T12:46:47;12.90;99.90
77582;DHT22;66726;52.388;9.986;2024-03-22T12:49:14;12.90;99.90
77582;DHT22;66726;52.388;9.986;2024-03-22T12:51:42;12.90;99.90
77582;DHT22;66726;52.388;9.986;2024-03-22T12:54:08;12.90;99.90
77582;DHT22;66726;52.388;9.986;2024-03-22T12:56:37;12.90;99.90
77582;DHT22;66726;52.388;9.986;2024-03-22T12:59:05;12.90;99.90
77582;DHT22;66726;52.388;9.986;2024-03-22T13:01:34;12.90;99.90
77582;DHT22;66726;52.388;9.986;2024-03-22T13:04:02;12.80;99.90
77582;DHT22;66726;52.388;9.986;2024-03-22T13:06:29;12.80;99.90
77582;DHT22;66726;52.388;9.986;2024-03-22T13:08:56;12.80;99.90
77582;DHT22;66726;52.388;9.986;2024-03-22T13:11:23;12.80;99.90
77582;DHT22;66726;52.388;9.986;2024-03-22T13:13:52;12.80;99.90
77582;DHT22;66726;52.388;9.986;2024-03-22T13:16:19;12.80;99.90
77582;DHT22;66726;52.388;9.986;2024-03-22T13:18:46;12.80;99.90
77582;DHT22;66726;52.388;9.986;2024-03-22T13:21:13;12.80;99.90
77582;DHT22;66726;52.388;9.986;2024-03-22T13:23:39;12.80;99.90
77582;DHT22;66726;52.388;9.986;2024-03-22T13:26:07;12.80;99.90
77582;DHT22;66726;52.388;9.986;2024-03-22T13:28:33;12.70;99.90
77582;DHT22;66726;52.388;9.986;2024-03-22T13:31:03;12.70;99.90
77582;DHT22;66726;52.388;9.986;2024-03-22T13:33:32;12.60;99.90
77582;DHT22;66726;52.388;9.986;2024-03-22T13:36:00;12.60;99.90
77582;DHT22;66726;52.388;9.986;2024-03-22T13:38:27;12.60;99.90
77582;DHT22;66726;52.388;9.986;2024-03-22T13:40:54;12.60;99.90
77582;DHT22;66726;52.388;9.986;2024-03-22T13:43:21;12.50;99.90
77582;DHT22;66726;52.388;9.986;2024-03-22T13:45:51;12.50;99.90
77582;DHT22;66726;52.388;9.986;2024-03-22T13:48:22;12.50;99.90
77582;DHT22;66726;52.388;9.986;2024-03-22T13:50:51;12.40;99.90
77582;DHT22;66726;52.388;9.986;2024-03-22T13:53:17;12.40;99.90
77582;DHT22;66726;52.388;9.986;2024-03-22T13:55:47;12.40;99.90
77582;DHT22;66726;52.388;9.986;2024-03-22T13:58:13;12.30;99.90
77582;DHT22;66726;52.388;9.986;2024-03-22T14:00:41;12.40;99.90
77582;DHT22;66726;52.388;9.986;2024-03-22T14:03:07;12.40;99.90
77582;DHT22;66726;52.388;9.986;2024-03-22T14:05:37;12.30;99.90
77582;DHT22;66726;52.388;9.986;2024-03-22T14:08:03;12.30;99.90
77582;DHT22;66726;52.388;9.986;2024-03-22T14:10:31;12.30;99.90
77582;DHT22;66726;52.388;9.986;2024-03-22T14:12:58;12.30;99.90
77582;DHT22;66726;52.388;9.986;2024-03-22T14:15:25;12.30;99.90
77582;DHT22;66726;52.388;9.986;2024-03-22T14:17:53;12.20;99.90
77582;DHT22;66726;52.388;9.986;2024-03-22T14:20:21;12.20;99.90
77582;DHT22;66726;52.388;9.986;2024-03-22T14:22:48;12.20;99.90
77582;DHT22;66726;52.388;9.986;2024-03-22T14:25:16;12.20;99.90
77582;DHT22;66726;52.388;9.986;2024-03-22T14:27:42;12.20;99.90
77582;DHT22;66726;52.388;9.986;2024-03-22T14:30:12;12.20;99.90
77582;DHT22;66726;52.388;9.986;2024-03-22T14:32:40;12.20;99.90
77582;DHT22;66726;52.388;9.986;2024-03-22T14:35:08;12.20;99.90
77582;DHT22;66726;52.388;9.986;2024-03-22T14:37:34;12.20;99.90
77582;DHT22;66726;52.388;9.986;2024-03-22T14:40:04;12.20;99.90
77582;DHT22;66726;52.388;9.986;2024-03-22T14:42:32;12.10;99.90
77582;DHT22;66726;52.388;9.986;2024-03-22T14:45:00;12.10;99.90
77582;DHT22;66726;52.388;9.986;2024-03-22T14:47:28;12.10;99.90
77582;DHT22;66726;52.388;9.986;2024-03-22T14:49:55;12.00;99.90
77582;DHT22;66726;52.388;9.986;2024-03-22T14:52:22;12.00;99.90
77582;DHT22;66726;52.388;9.986;2024-03-22T14:54:51;11.90;99.90
77582;DHT22;66726;52.388;9.986;2024-03-22T14:57:19;11.80;99.90
77582;DHT22;66726;52.388;9.986;2024-03-22T14:59:46;11.80;99.90
77582;DHT22;66726;52.388;9.986;2024-03-22T15:02:13;11.80;99.90
77582;DHT22;66726;52.388;9.986;2024-03-22T15:04:41;11.60;99.90
77582;DHT22;66726;52.388;9.986;2024-03-22T15:07:07;11.70;99.90
77582;DHT22;66726;52.388;9.986;2024-03-22T15:09:34;11.60;99.90
77582;DHT22;66726;52.388;9.986;2024-03-22T15:12:01;11.70;99.90
77582;DHT22;66726;52.388;9.986;2024-03-22T15:14:29;11.50;99.90
77582;DHT22;66726;52.388;9.986;2024-03-22T15:16:56;11.60;99.90
77582;DHT22;66726;52.388;9.986;2024-03-22T15:19:23;11.50;99.90
77582;DHT22;66726;52.388;9.986;2024-03-22T15:21:50;11.40;99.90
77582;DHT22;66726;52.388;9.986;2024-03-22T15:24:18;11.40;99.90
77582;DHT22;66726;52.388;9.986;2024-03-22T15:26:45;11.40;99.90
77582;DHT22;66726;52.388;9.986;2024-03-22T15:29:12;11.40;99.90
77582;DHT22;66726;52.388;9.986;2024-03-22T15:31:40;11.40;99.90
77582;DHT22;66726;52.388;9.986;2024-03-22T15:34:08;11.40;99.90
77582;DHT22;66726;52.388;9.986;2024-03-22T15:36:34;11.40;99.90
77582;DHT22;66726;52.388;9.986;2024-03-22T15:39:01;11.30;99.90